Time;durP1;ratioP1;P1;durP2;ratioP2;P2;SDS_P1;SDS_P2;PMS_P1;PMS_P2;Temp;Humidity;BMP_temperature;BMP_pressure;BME280_temperature;BME280_humidity;BME280_pressure;Samples;Min_cycle;Max_cycle;Signal;HPM_P1;HPM_P2
2021/03/06 00:02:17;;;;;;;5.27;4.60;;;0.10;99.90;;;;;;5055053;28;20558;-81
2021/03/06 00:04:44;;;;;;;7.00;5.20;;;0.20;1.00;;;;;;5054781;28;20187;-81
2021/03/06 00:07:09;;;;;;;6.97;5.13;;;0.00;1.00;;;;;;5072399;28;20240;-81
2021/03/06 00:09:36;;;;;;;6.80;4.77;;;0.20;1.00;;;;;;5072553;28;20425;-81
2021/03/06 00:12:05;;;;;;;6.30;5.40;;;0.20;1.00;;;;;;5054496;28;20175;-81
2021/03/06 00:14:31;;;;;;;7.10;4.67;;;0.10;1.00;;;;;;5072373;28;20932;-81
2021/03/06 00:16:57;;;;;;;9.63;6.63;;;0.30;1.00;;;;;;5072518;28;20421;-81
2021/03/06 00:19:23;;;;;;;7.73;5.57;;;0.20;1.00;;;;;;5054515;28;20476;-81
2021/03/06 00:21:49;;;;;;;8.13;6.50;;;0.10;1.00;;;;;;5054314;28;20551;-81
2021/03/06 00:24:14;;;;;;;6.20;5.43;;;-0.10;1.00;;;;;;5054354;28;20193;-81
2021/03/06 00:26:40;;;;;;;7.33;5.00;;;0.00;1.00;;;;;;5072241;28;20171;-81
2021/03/06 00:29:05;;;;;;;5.97;5.37;;;0.10;1.00;;;;;;5054327;28;20181;-81
2021/03/06 00:31:31;;;;;;;7.23;5.23;;;0.00;1.00;;;;;;5054507;28;20265;-81
2021/03/06 00:33:57;;;;;;;6.30;5.27;;;0.00;1.00;;;;;;5054361;28;20236;-81
2021/03/06 00:36:22;;;;;;;5.67;4.70;;;-0.10;1.00;;;;;;5054157;28;20203;-81
2021/03/06 00:38:48;;;;;;;6.17;4.50;;;0.00;1.00;;;;;;5072221;28;20259;-81
2021/03/06 00:41:13;;;;;;;7.10;5.03;;;0.00;1.00;;;;;;5054093;28;20213;-81
2021/03/06 00:43:39;;;;;;;9.00;4.93;;;0.00;1.00;;;;;;5054074;28;20182;-81
2021/03/06 00:46:05;;;;;;;8.00;6.20;;;-0.30;1.00;;;;;;5054215;28;20183;-81
2021/03/06 00:48:31;;;;;;;9.83;5.40;;;-0.10;1.00;;;;;;5054251;28;20210;-81
2021/03/06 00:50:56;;;;;;;20.13;6.87;;;-0.10;1.00;;;;;;5072440;28;20266;-81
2021/03/06 00:53:22;;;;;;;7.77;5.97;;;0.00;1.00;;;;;;5054165;28;20179;-80
2021/03/06 00:55:47;;;;;;;7.10;5.90;;;-0.20;99.90;;;;;;5053846;28;20175;-81
2021/03/06 00:58:13;;;;;;;7.80;5.93;;;-0.20;99.90;;;;;;5053482;28;20292;-81
2021/03/06 01:00:39;;;;;;;8.03;5.37;;;-0.10;99.90;;;;;;5054101;28;20190;-81
2021/03/06 01:03:05;;;;;;;6.47;5.87;;;-0.20;99.90;;;;;;5053947;28;20232;-81
2021/03/06 01:05:31;;;;;;;7.87;5.80;;;-0.50;99.90;;;;;;5054054;28;20247;-80
2021/03/06 01:07:56;;;;;;;5.83;5.23;;;-0.30;99.90;;;;;;5053977;28;20533;-81
2021/03/06 01:10:29;;;;;;;7.23;5.13;;;-0.10;1.00;;;;;;5053992;28;20186;-81
2021/03/06 01:12:55;;;;;;;5.40;4.90;;;-0.10;1.00;;;;;;5053884;28;20558;-81
2021/03/06 01:15:21;;;;;;;7.27;5.37;;;-0.20;1.00;;;;;;5053962;28;20426;-81
2021/03/06 01:17:47;;;;;;;6.93;5.33;;;-0.40;1.00;;;;;;5053937;28;20207;-81
2021/03/06 01:20:13;;;;;;;6.03;5.43;;;-0.50;1.00;;;;;;5053820;28;20425;-81
2021/03/06 01:22:39;;;;;;;7.00;5.10;;;-0.50;1.00;;;;;;5053675;28;20179;-81
2021/03/06 01:25:06;;;;;;;7.67;5.17;;;-0.40;1.00;;;;;;5053649;28;20424;-81
2021/03/06 01:27:32;;;;;;;9.03;5.67;;;-0.50;1.00;;;;;;5053472;28;20433;-81
2021/03/06 01:29:58;;;;;;;6.30;5.70;;;-0.50;1.00;;;;;;5053694;28;20932;-81
2021/03/06 01:32:23;;;;;;;6.47;5.33;;;-0.70;1.00;;;;;;5053377;28;20558;-81
2021/03/06 01:34:50;;;;;;;6.70;5.30;;;-0.70;1.00;;;;;;5053608;28;20172;-81
2021/03/06 01:37:16;;;;;;;9.90;5.63;;;-0.90;1.00;;;;;;5053439;28;20226;-81
2021/03/06 01:39:42;;;;;;;7.80;7.00;;;-0.50;1.00;;;;;;5071312;28;20917;-81
2021/03/06 01:42:08;;;;;;;6.20;5.27;;;-0.70;1.00;;;;;;5070603;28;20412;-81
2021/03/06 01:44:34;;;;;;;7.90;5.17;;;-0.60;1.00;;;;;;5053385;28;20181;-82
2021/03/06 01:47:00;;;;;;;8.80;5.30;;;-0.60;1.00;;;;;;5071130;28;20996;-81
2021/03/06 01:49:27;;;;;;;8.10;5.90;;;-0.50;1.00;;;;;;5053178;28;20421;-81
2021/03/06 01:51:53;;;;;;;7.67;5.30;;;-0.70;1.00;;;;;;5053191;28;20471;-81
2021/03/06 01:54:22;;;;;;;6.70;5.67;;;-0.80;1.00;;;;;;5071217;28;20424;-80
2021/03/06 01:56:48;;;;;;;6.60;5.70;;;-1.00;1.00;;;;;;5071303;28;20967;-81
2021/03/06 01:59:15;;;;;;;6.20;5.03;;;-0.60;1.00;;;;;;5070692;28;20987;-81
2021/03/06 02:01:41;;;;;;;6.57;5.70;;;-0.50;1.00;;;;;;5053077;28;20417;-81
2021/03/06 02:04:07;;;;;;;8.73;5.80;;;-0.60;1.00;;;;;;5053132;28;20430;-81
2021/03/06 02:06:33;;;;;;;5.70;4.87;;;-0.70;1.00;;;;;;5071099;28;20413;-81
2021/03/06 02:08:58;;;;;;;5.97;5.40;;;-0.80;1.00;;;;;;5055541;28;20429;-81
2021/03/06 02:11:45;;;;;;;6.03;5.43;;;-0.90;1.00;;;;;;5056477;28;20179;-81
2021/03/06 02:14:50;;;;;;;6.60;5.30;;;-0.80;1.00;;;;;;5056503;28;20179;-81
2021/03/06 02:17:28;;;;;;;10.70;4.90;;;-0.80;1.00;;;;;;5056388;28;20453;-81
2021/03/06 02:20:18;;;;;;;13.07;6.57;;;-0.80;1.00;;;;;;5056492;28;20425;-81
2021/03/06 02:23:37;;;;;;;7.13;5.43;;;-0.80;1.00;;;;;;5056457;28;20959;-81
2021/03/06 02:26:27;;;;;;;6.90;5.70;;;-0.80;1.00;;;;;;4957109;28;20426;-81
2021/03/06 02:29:10;;;;;;;6.70;5.47;;;-0.80;1.00;;;;;;5056241;28;20514;-81
2021/03/06 02:31:40;;;;;;;7.17;6.30;;;-0.90;1.00;;;;;;5056156;28;20417;-81
2021/03/06 02:34:15;;;;;;;8.90;5.90;;;-0.90;1.00;;;;;;5056277;28;20520;-81
2021/03/06 02:36:47;;;;;;;7.40;5.90;;;-0.80;1.00;;;;;;5056131;28;20826;-81
2021/03/06 02:39:16;;;;;;;5.63;5.10;;;-0.90;1.00;;;;;;5074090;28;20413;-81
2021/03/06 02:41:43;;;;;;;7.70;6.23;;;-0.80;1.00;;;;;;5056034;28;20421;-81
2021/03/06 02:44:11;;;;;;;7.33;5.50;;;-1.20;1.00;;;;;;5073959;28;20405;-81
2021/03/06 02:46:38;;;;;;;8.27;6.30;;;-0.90;1.00;;;;;;5055931;28;20922;-80
2021/03/06 02:49:04;;;;;;;10.10;6.77;;;-0.80;1.00;;;;;;5055893;28;20477;-81
2021/03/06 02:51:40;;;;;;;5.90;5.40;;;-0.60;1.00;;;;;;5055771;28;20409;-80
2021/03/06 02:54:08;;;;;;;7.40;5.73;;;-1.00;1.00;;;;;;5073620;28;20470;-81
2021/03/06 02:56:34;;;;;;;9.60;6.67;;;-0.70;1.00;;;;;;5055880;28;20414;-80
2021/03/06 02:59:16;;;;;;;7.47;6.40;;;-0.90;1.00;;;;;;5055497;28;21011;-81
2021/03/06 03:02:15;;;;;;;5.87;5.37;;;-0.90;1.00;;;;;;5056005;28;20811;-81
2021/03/06 03:05:02;;;;;;;7.50;5.57;;;-0.80;1.00;;;;;;5055587;28;20861;-81
2021/03/06 03:07:55;;;;;;;6.33;4.80;;;-0.80;1.00;;;;;;5073401;28;20526;-81
2021/03/06 03:10:22;;;;;;;8.63;6.00;;;-0.70;1.00;;;;;;5055442;28;20793;-81
2021/03/06 03:12:54;;;;;;;10.10;7.33;;;-0.80;1.00;;;;;;5055377;28;20505;-81
2021/03/06 03:15:36;;;;;;;10.40;6.00;;;-0.80;1.00;;;;;;5073358;28;20502;-81
2021/03/06 03:18:04;;;;;;;5.63;5.10;;;-0.90;1.00;;;;;;5055316;28;20924;-80
2021/03/06 03:20:49;;;;;;;6.80;6.07;;;-0.70;1.00;;;;;;5055233;28;20428;-80
2021/03/06 03:23:20;;;;;;;6.63;5.40;;;-0.80;1.00;;;;;;5055251;28;20436;-81
2021/03/06 03:25:46;;;;;;;13.30;7.40;;;-0.80;1.00;;;;;;5055304;28;20528;-80
2021/03/06 03:28:14;;;;;;;16.50;7.97;;;-0.80;1.00;;;;;;5073047;28;20801;-81
2021/03/06 03:30:40;;;;;;;15.40;8.60;;;-0.80;1.00;;;;;;5073070;28;20445;-81
2021/03/06 03:33:09;;;;;;;9.20;7.17;;;-0.80;1.00;;;;;;5055246;28;20491;-80
2021/03/06 03:35:39;;;;;;;12.80;7.47;;;-1.10;1.00;;;;;;5055169;28;20483;-81
2021/03/06 03:38:05;;;;;;;10.90;8.23;;;-1.00;1.00;;;;;;5055000;28;20429;-81
2021/03/06 03:40:33;;;;;;;24.60;12.17;;;-0.90;1.00;;;;;;5072955;28;20452;-80
2021/03/06 03:42:59;;;;;;;22.73;10.43;;;-1.10;1.00;;;;;;5072984;28;20483;-81
2021/03/06 03:45:26;;;;;;;18.20;9.40;;;-0.90;1.00;;;;;;5072943;28;20417;-81
2021/03/06 03:47:52;;;;;;;16.50;10.60;;;-1.10;1.00;;;;;;5054667;28;20457;-80
2021/03/06 03:50:19;;;;;;;13.17;7.37;;;-1.20;1.00;;;;;;5054991;28;20520;-81
2021/03/06 03:52:48;;;;;;;9.97;6.47;;;-1.00;1.00;;;;;;5054674;28;20181;-80
2021/03/06 03:55:14;;;;;;;8.13;5.10;;;-1.20;1.00;;;;;;5055242;28;20847;-81
2021/03/06 03:57:39;;;;;;;5.87;4.83;;;-1.20;1.00;;;;;;5054743;28;20467;-81
2021/03/06 04:00:10;;;;;;;5.83;5.20;;;-1.20;1.00;;;;;;5072271;28;20770;-81
2021/03/06 04:02:36;;;;;;;8.23;5.70;;;-1.20;1.00;;;;;;5072658;28;20414;-81
2021/03/06 04:05:07;;;;;;;6.23;5.63;;;-1.30;1.00;;;;;;5054576;28;20730;-81
2021/03/06 04:07:46;;;;;;;7.20;5.67;;;-1.30;1.00;;;;;;5054243;28;20929;-81
2021/03/06 04:10:15;;;;;;;7.10;5.60;;;-1.20;1.00;;;;;;5054373;28;20794;-80
2021/03/06 04:12:42;;;;;;;5.40;4.90;;;-1.20;1.00;;;;;;5054266;28;20425;-81
2021/03/06 04:15:10;;;;;;;5.73;4.90;;;-1.50;1.00;;;;;;5072374;28;20464;-80
2021/03/06 04:17:36;;;;;;;6.80;5.33;;;-1.40;1.00;;;;;;5054155;28;20436;-80
2021/03/06 04:20:03;;;;;;;7.17;5.33;;;-1.60;1.00;;;;;;5054309;28;20541;-80
2021/03/06 04:22:29;;;;;;;7.80;5.27;;;-1.60;1.00;;;;;;5054120;28;20211;-80
2021/03/06 04:24:55;;;;;;;5.83;5.33;;;-1.50;1.00;;;;;;5072194;28;20503;-80
2021/03/06 04:27:20;;;;;;;7.60;5.40;;;-1.50;1.00;;;;;;5072136;28;20171;-80
2021/03/06 04:29:46;;;;;;;7.33;5.37;;;-1.60;1.00;;;;;;5072089;28;20182;-81
2021/03/06 04:32:11;;;;;;;5.27;4.77;;;-1.50;1.00;;;;;;5053559;28;20493;-80
2021/03/06 04:34:37;;;;;;;5.33;4.77;;;-1.50;1.00;;;;;;5053781;28;20264;-80
2021/03/06 04:37:02;;;;;;;5.93;5.33;;;-1.70;1.00;;;;;;5053931;28;20171;-80
2021/03/06 04:39:28;;;;;;;6.07;5.47;;;-1.70;1.00;;;;;;5053880;28;20207;-80
2021/03/06 04:41:53;;;;;;;7.20;5.10;;;-1.50;1.00;;;;;;5053703;28;20366;-81
2021/03/06 04:44:19;;;;;;;8.63;5.87;;;-1.50;1.00;;;;;;5053871;28;20209;-80
2021/03/06 04:46:45;;;;;;;6.33;5.57;;;-1.60;1.00;;;;;;5054015;28;20270;-81
2021/03/06 04:49:10;;;;;;;6.20;5.70;;;-1.60;1.00;;;;;;5071670;28;20645;-80
2021/03/06 04:51:36;;;;;;;8.50;6.50;;;-1.70;1.00;;;;;;5053844;28;20171;-80
2021/03/06 04:54:02;;;;;;;6.93;5.73;;;-1.60;1.00;;;;;;5071729;28;20681;-81
2021/03/06 04:56:27;;;;;;;6.73;5.50;;;-1.70;1.00;;;;;;5053570;28;20577;-81
2021/03/06 04:58:54;;;;;;;9.60;5.47;;;-1.70;1.00;;;;;;5053738;28;20848;-81
2021/03/06 05:01:19;;;;;;;8.70;6.30;;;-1.80;1.00;;;;;;5053554;28;20531;-81
2021/03/06 05:03:45;;;;;;;6.77;6.13;;;-1.60;1.00;;;;;;5053797;28;20418;-80
2021/03/06 05:06:11;;;;;;;6.50;5.90;;;-1.80;1.00;;;;;;5053543;28;20270;-81
2021/03/06 05:08:39;;;;;;;6.10;5.50;;;-1.60;1.00;;;;;;5071764;28;20242;-80
2021/03/06 05:11:05;;;;;;;7.43;5.10;;;-1.60;1.00;;;;;;5053403;28;20509;-81
2021/03/06 05:13:31;;;;;;;9.27;6.30;;;-1.70;1.00;;;;;;5053880;28;20818;-81
2021/03/06 05:15:56;;;;;;;11.37;6.70;;;-1.80;1.00;;;;;;5053722;28;20421;-81
2021/03/06 05:18:22;;;;;;;6.60;5.97;;;-2.00;1.00;;;;;;5053508;28;20172;-81
2021/03/06 05:20:47;;;;;;;8.43;5.70;;;-1.80;1.00;;;;;;5053499;28;20761;-80
2021/03/06 05:23:13;;;;;;;7.40;5.87;;;-2.00;1.00;;;;;;5053553;28;20175;-80
2021/03/06 05:25:38;;;;;;;7.00;6.13;;;-1.90;1.00;;;;;;5071496;28;20202;-81
2021/03/06 05:28:04;;;;;;;11.13;6.23;;;-2.00;1.00;;;;;;5053609;28;20581;-80
2021/03/06 05:30:30;;;;;;;16.50;6.30;;;-1.90;1.00;;;;;;5053336;28;20647;-81
2021/03/06 05:32:55;;;;;;;7.80;6.03;;;-1.80;1.00;;;;;;5071527;28;20174;-80
2021/03/06 05:35:21;;;;;;;16.13;6.43;;;-2.00;1.00;;;;;;5053400;28;20175;-80
2021/03/06 05:37:47;;;;;;;7.63;6.70;;;-2.00;1.00;;;;;;5053251;28;20175;-81
2021/03/06 05:40:12;;;;;;;11.53;6.63;;;-2.30;1.00;;;;;;5053222;28;20178;-80
2021/03/06 05:42:38;;;;;;;11.57;7.30;;;-1.80;1.00;;;;;;5053793;28;20179;-80
2021/03/06 05:45:06;;;;;;;6.70;6.10;;;-2.00;1.00;;;;;;5057305;28;20794;-82
2021/03/06 05:47:32;;;;;;;6.80;6.10;;;-1.80;1.00;;;;;;5056922;28;20175;-81
2021/03/06 05:49:59;;;;;;;8.33;7.00;;;-1.80;1.00;;;;;;5057308;28;20425;-80
2021/03/06 05:52:27;;;;;;;7.60;6.40;;;-1.70;1.00;;;;;;5074979;28;20571;-80
2021/03/06 05:54:55;;;;;;;7.67;6.20;;;-1.90;1.00;;;;;;5074994;28;20563;-81
2021/03/06 05:57:21;;;;;;;18.93;9.93;;;-1.90;1.00;;;;;;5050706;28;20879;-80
2021/03/06 05:59:48;;;;;;;15.23;7.60;;;-2.00;1.00;;;;;;5055260;28;20480;-80
2021/03/06 06:02:17;;;;;;;9.67;6.40;;;-2.20;1.00;;;;;;5055515;28;20413;-80
2021/03/06 06:04:45;;;;;;;10.57;7.80;;;-1.80;1.00;;;;;;5055776;28;20413;-80
2021/03/06 06:07:14;;;;;;;15.73;7.97;;;-1.70;1.00;;;;;;5056214;28;20433;-81
2021/03/06 06:09:40;;;;;;;21.53;11.73;;;-1.60;1.00;;;;;;5057073;28;21203;-80
2021/03/06 06:12:06;;;;;;;15.10;10.20;;;-1.70;1.00;;;;;;5060137;28;20457;-80
2021/03/06 06:14:32;;;;;;;13.47;9.97;;;-1.50;1.00;;;;;;5073454;28;20175;-81
2021/03/06 06:16:59;;;;;;;12.17;10.40;;;-1.30;1.00;;;;;;5070050;28;20433;-80
2021/03/06 06:19:25;;;;;;;13.23;10.00;;;-1.40;1.00;;;;;;5072363;28;20527;-80
2021/03/06 06:21:50;;;;;;;8.63;7.70;;;-0.50;1.00;;;;;;5073791;28;20428;-80
2021/03/06 06:24:18;;;;;;;9.07;7.40;;;0.00;1.00;;;;;;5073729;28;20534;-81
2021/03/06 06:26:58;;;;;;;10.93;8.00;;;0.10;1.00;;;;;;5072473;28;20193;-80
2021/03/06 06:29:36;;;;;;;11.77;8.93;;;0.70;99.90;;;;;;5072288;28;20465;-81
2021/03/06 06:32:03;;;;;;;10.40;7.63;;;1.10;1.00;;;;;;5071580;28;20432;-81
2021/03/06 06:34:28;;;;;;;6.83;6.23;;;1.20;99.90;;;;;;5075287;28;20425;-81
2021/03/06 06:36:54;;;;;;;9.33;6.53;;;1.60;1.00;;;;;;5073596;28;20420;-81
2021/03/06 06:39:31;;;;;;;6.93;6.33;;;1.60;99.90;;;;;;5073308;28;20214;-81
2021/03/06 06:41:58;;;;;;;6.23;5.63;;;0.40;1.00;;;;;;5056644;28;20244;-81
2021/03/06 06:44:25;;;;;;;16.57;6.93;;;0.80;1.00;;;;;;5033787;28;20422;-81
2021/03/06 06:46:52;;;;;;;6.30;5.70;;;0.20;1.00;;;;;;5070378;28;21142;-81
2021/03/06 06:49:18;;;;;;;6.70;6.20;;;-0.20;1.00;;;;;;5057951;28;20484;-81
2021/03/06 06:52:05;;;;;;;7.80;7.10;;;0.00;51.10;;;;;;5055283;28;20426;-81
2021/03/06 06:54:33;;;;;;;7.23;6.53;;;-0.40;99.90;;;;;;5032951;28;20952;-80
2021/03/06 06:57:13;;;;;;;6.23;5.67;;;-0.20;99.90;;;;;;5053858;28;20480;-81
2021/03/06 06:59:50;;;;;;;7.20;6.60;;;-0.20;1.00;;;;;;5055017;28;20935;-81
2021/03/06 07:02:16;;;;;;;6.57;5.90;;;0.10;1.00;;;;;;5054987;28;20429;-82
2021/03/06 07:04:43;;;;;;;6.67;5.70;;;0.70;1.00;;;;;;5072834;28;20905;-81
2021/03/06 07:07:11;;;;;;;6.20;5.70;;;0.50;99.90;;;;;;5054543;28;20183;-81
2021/03/06 07:09:37;;;;;;;25.90;8.60;;;0.40;1.00;;;;;;5072362;28;20477;-81
2021/03/06 07:12:16;;;;;;;8.43;5.47;;;0.40;18.80;;;;;;5073609;28;20414;-81
2021/03/06 07:14:42;;;;;;;6.90;6.20;;;0.40;99.90;;;;;;5054950;28;20469;-82
2021/03/06 07:17:08;;;;;;;25.43;9.47;;;0.90;99.90;;;;;;5055409;28;20444;-81
2021/03/06 07:19:40;;;;;;;6.17;5.53;;;1.70;99.90;;;;;;5072071;28;20418;-81
2021/03/06 07:22:06;;;;;;;7.10;6.43;;;2.50;1.00;;;;;;5073086;28;20535;-82
2021/03/06 07:24:32;;;;;;;13.13;8.47;;;3.30;99.90;;;;;;5072186;28;20421;-82
2021/03/06 07:26:58;;;;;;;5.80;5.20;;;3.60;99.90;;;;;;5072826;28;20183;-82
2021/03/06 07:29:24;;;;;;;10.90;6.80;;;3.90;1.00;;;;;;5072571;28;21035;-81
2021/03/06 07:31:52;;;;;;;6.10;5.60;;;4.40;1.00;;;;;;5072315;28;20222;-81
2021/03/06 07:34:24;;;;;;;6.00;5.40;;;4.40;1.00;;;;;;5077523;28;20803;-81
2021/03/06 07:36:51;;;;;;;5.77;5.37;;;4.80;1.00;;;;;;5072070;28;20514;-82
2021/03/06 07:39:18;;;;;;;6.80;6.30;;;4.60;1.00;;;;;;5070755;28;20414;-82
2021/03/06 07:41:53;;;;;;;4.97;4.63;;;4.90;1.00;;;;;;5072618;28;20941;-81
2021/03/06 07:44:23;;;;;;;7.67;6.97;;;5.00;99.90;;;;;;5071106;28;20928;-82
2021/03/06 07:46:50;;;;;;;6.53;4.90;;;5.50;99.90;;;;;;5071075;28;20443;-81
2021/03/06 07:49:17;;;;;;;5.27;4.87;;;5.90;99.90;;;;;;5071887;28;20476;-81
2021/03/06 07:51:44;;;;;;;5.13;4.80;;;5.30;99.90;;;;;;5072614;28;20429;-81
2021/03/06 07:54:14;;;;;;;5.87;4.80;;;5.70;99.90;;;;;;5073029;28;20524;-82
2021/03/06 07:56:41;;;;;;;6.00;5.40;;;6.10;99.90;;;;;;5073089;28;20417;-81
2021/03/06 07:59:07;;;;;;;6.83;6.40;;;6.00;99.90;;;;;;5073767;28;20904;-82
2021/03/06 08:01:34;;;;;;;4.60;4.30;;;6.60;99.90;;;;;;5071990;28;20881;-81
2021/03/06 08:04:04;;;;;;;6.20;5.60;;;7.10;99.90;;;;;;5074301;28;20847;-81
2021/03/06 08:06:32;;;;;;;8.30;7.63;;;6.60;99.90;;;;;;5071258;28;20425;-83
2021/03/06 08:09:05;;;;;;;7.33;6.63;;;7.40;99.90;;;;;;5073290;28;20855;-82
2021/03/06 08:11:33;;;;;;;5.73;4.90;;;7.10;99.90;;;;;;5073373;28;20421;-81
2021/03/06 08:14:02;;;;;;;7.47;5.47;;;6.80;99.90;;;;;;5071149;28;20421;-82
2021/03/06 08:16:27;;;;;;;5.70;5.20;;;7.20;99.90;;;;;;5071308;28;20928;-82
2021/03/06 08:19:08;;;;;;;6.20;5.30;;;7.90;99.90;;;;;;5072667;28;20416;-82
2021/03/06 08:21:36;;;;;;;10.53;9.40;;;8.10;99.90;;;;;;5071464;28;20182;-82
2021/03/06 08:24:14;;;;;;;6.03;5.53;;;7.90;99.90;;;;;;5072662;28;20773;-84
2021/03/06 08:26:41;;;;;;;10.30;5.43;;;7.60;99.90;;;;;;5067490;28;20478;-82
2021/03/06 08:29:39;;;;;;;5.40;5.10;;;8.10;99.90;;;;;;5064961;28;20835;-82
2021/03/06 08:32:07;;;;;;;11.37;7.40;;;8.40;99.90;;;;;;5050027;28;20457;-82
2021/03/06 08:34:43;;;;;;;5.77;5.37;;;8.80;99.90;;;;;;5073140;28;20450;-82
2021/03/06 08:39:44;;;;;;;6.80;6.30;;;8.40;99.90;;;;;;5072164;28;20456;-82
2021/03/06 08:42:11;;;;;;;5.83;5.43;;;8.30;99.90;;;;;;5070866;28;20424;-81
2021/03/06 08:44:37;;;;;;;6.60;6.00;;;7.90;99.90;;;;;;5072195;28;20425;-82
2021/03/06 08:47:04;;;;;;;5.90;5.40;;;7.30;99.90;;;;;;5054425;28;20449;-82
2021/03/06 08:49:31;;;;;;;7.60;5.80;;;6.20;99.90;;;;;;5072162;28;20473;-83
2021/03/06 08:51:57;;;;;;;6.97;6.37;;;5.20;99.90;;;;;;5072412;28;20413;-82
2021/03/06 08:54:23;;;;;;;6.17;5.57;;;5.40;99.90;;;;;;5054604;28;20518;-81
2021/03/06 08:56:49;;;;;;;6.20;5.70;;;5.30;99.90;;;;;;5072012;28;20417;-82
2021/03/06 08:59:15;;;;;;;5.50;5.10;;;5.50;99.90;;;;;;5060393;28;20508;-81
2021/03/06 09:01:41;;;;;;;7.17;6.53;;;5.60;99.90;;;;;;5034184;28;20469;-82
2021/03/06 09:04:07;;;;;;;5.77;5.27;;;5.70;99.90;;;;;;5051331;28;20215;-82
2021/03/06 09:06:37;;;;;;;8.30;6.47;;;6.00;99.90;;;;;;5034392;28;20926;-82
2021/03/06 09:09:05;;;;;;;5.73;5.23;;;6.50;99.90;;;;;;5052033;28;20235;-82
2021/03/06 09:11:32;;;;;;;7.33;6.30;;;7.20;99.90;;;;;;5052245;28;20493;-82
2021/03/06 09:13:58;;;;;;;6.13;5.30;;;7.70;99.90;;;;;;5033902;28;20434;-82
2021/03/06 09:16:24;;;;;;;6.00;5.60;;;8.80;99.90;;;;;;5033991;28;20532;-83
2021/03/06 09:18:49;;;;;;;5.83;5.33;;;9.20;99.90;;;;;;5055847;28;20461;-82
2021/03/06 09:21:23;;;;;;;5.93;5.37;;;9.50;99.90;;;;;;5056034;28;20186;-82
2021/03/06 09:23:51;;;;;;;5.53;5.13;;;9.70;99.90;;;;;;5055928;28;20168;-82
2021/03/06 09:26:27;;;;;;;5.67;5.17;;;10.20;99.90;;;;;;5055854;28;20507;-82
2021/03/06 09:28:55;;;;;;;5.33;4.93;;;10.40;99.90;;;;;;5038137;28;20473;-82
2021/03/06 09:31:27;;;;;;;6.10;5.60;;;9.60;99.90;;;;;;5056375;28;20766;-82
2021/03/06 09:33:53;;;;;;;7.20;6.53;;;9.70;99.90;;;;;;5055517;28;20426;-82
2021/03/06 09:36:21;;;;;;;6.57;5.97;;;9.40;99.90;;;;;;5037455;28;20488;-81
2021/03/06 09:38:58;;;;;;;5.93;5.47;;;10.10;99.90;;;;;;5056289;28;20509;-82
2021/03/06 09:41:28;;;;;;;6.50;6.00;;;10.10;99.90;;;;;;5055648;28;20430;-82
2021/03/06 09:43:56;;;;;;;6.40;5.87;;;10.30;99.90;;;;;;5055730;28;20452;-82
2021/03/06 09:46:25;;;;;;;5.77;5.37;;;10.10;99.90;;;;;;5057184;28;20822;-83
2021/03/06 09:49:09;;;;;;;6.00;5.50;;;10.40;99.90;;;;;;5055244;28;21023;-82
2021/03/06 09:51:47;;;;;;;5.80;5.20;;;10.40;99.90;;;;;;5037302;28;20422;-82
2021/03/06 09:54:17;;;;;;;7.57;6.87;;;10.10;99.90;;;;;;5055506;28;20504;-82
2021/03/06 09:56:51;;;;;;;9.90;6.73;;;9.60;99.90;;;;;;5055192;28;20429;-79
2021/03/06 09:59:16;;;;;;;7.50;6.80;;;9.30;99.90;;;;;;5055993;28;20462;-83
2021/03/06 10:01:42;;;;;;;7.07;6.23;;;8.80;99.90;;;;;;5037755;28;20505;-83
2021/03/06 10:04:16;;;;;;;7.00;5.73;;;9.10;99.90;;;;;;5037323;28;20176;-82
2021/03/06 10:06:45;;;;;;;5.70;5.20;;;8.70;99.90;;;;;;5058732;28;20237;-82
2021/03/06 10:09:13;;;;;;;6.43;5.93;;;8.50;99.90;;;;;;5054805;28;20505;-82
2021/03/06 10:11:41;;;;;;;5.27;4.87;;;9.30;99.90;;;;;;5054917;28;20449;-82
2021/03/06 10:14:08;;;;;;;6.57;5.70;;;9.80;99.90;;;;;;5054974;28;20430;-81
2021/03/06 10:16:55;;;;;;;6.50;5.90;;;10.10;99.90;;;;;;5036836;28;21073;-81
2021/03/06 10:19:23;;;;;;;5.77;5.27;;;10.80;99.90;;;;;;5037514;28;21120;-82
2021/03/06 10:22:05;;;;;;;6.07;5.43;;;10.60;99.90;;;;;;5054483;28;20442;-82
2021/03/06 10:24:31;;;;;;;7.53;6.03;;;10.00;99.90;;;;;;5035452;28;20434;-80
2021/03/06 10:27:01;;;;;;;6.73;6.13;;;9.80;99.90;;;;;;5055246;28;20418;-81
2021/03/06 10:29:28;;;;;;;7.37;6.83;;;10.00;99.90;;;;;;5053840;28;20880;-82
2021/03/06 10:32:02;;;;;;;5.83;5.30;;;10.20;99.90;;;;;;5054970;28;20410;-81
2021/03/06 10:34:31;;;;;;;6.50;5.83;;;10.20;99.90;;;;;;5054473;28;20406;-81
2021/03/06 10:37:11;;;;;;;5.33;4.83;;;10.70;99.90;;;;;;5036524;28;20442;-81
2021/03/06 10:40:03;;;;;;;6.50;6.00;;;10.30;99.90;;;;;;5036173;28;20426;-81
2021/03/06 10:42:50;;;;;;;6.30;5.80;;;10.60;99.90;;;;;;5036483;28;20964;-82
2021/03/06 10:45:25;;;;;;;6.33;5.80;;;10.10;99.90;;;;;;5037453;28;20457;-81
2021/03/06 10:47:54;;;;;;;6.17;5.57;;;10.70;99.90;;;;;;5036880;28;20509;-81
2021/03/06 10:50:31;;;;;;;5.47;4.97;;;11.60;99.90;;;;;;5036396;28;20429;-82
2021/03/06 10:53:31;;;;;;;6.90;6.17;;;10.30;99.90;;;;;;5054458;28;20406;-83
2021/03/06 10:55:57;;;;;;;6.43;5.83;;;9.60;99.90;;;;;;4993922;28;20423;-81
2021/03/06 10:58:45;;;;;;;5.73;4.37;;;9.90;99.90;;;;;;5036055;28;20486;-82
2021/03/06 11:01:12;;;;;;;5.77;5.17;;;10.40;99.90;;;;;;5036033;28;20431;-81
2021/03/06 11:03:39;;;;;;;5.20;4.70;;;10.80;99.90;;;;;;5036239;28;20959;-82
2021/03/06 11:06:05;;;;;;;5.30;4.80;;;10.80;99.90;;;;;;5036283;28;20423;-81
2021/03/06 11:08:31;;;;;;;6.23;5.70;;;10.50;99.90;;;;;;5036240;28;20476;-81
2021/03/06 11:10:57;;;;;;;9.40;6.17;;;10.50;99.90;;;;;;5053783;28;20910;-81
2021/03/06 11:13:22;;;;;;;7.07;5.67;;;10.90;99.90;;;;;;5035791;28;20172;-81
2021/03/06 11:15:50;;;;;;;5.37;4.90;;;10.40;99.90;;;;;;5036053;28;20190;-81
2021/03/06 11:18:16;;;;;;;8.50;5.63;;;9.70;99.90;;;;;;5035792;28;20172;-81
2021/03/06 11:20:42;;;;;;;5.40;5.00;;;10.30;99.90;;;;;;5054688;28;20418;-82
2021/03/06 11:23:09;;;;;;;5.67;5.27;;;10.80;99.90;;;;;;5035984;28;20422;-82
2021/03/06 11:25:35;;;;;;;6.30;5.80;;;10.80;99.90;;;;;;5054203;28;20472;-81
2021/03/06 11:28:08;;;;;;;6.40;5.90;;;10.70;99.90;;;;;;5053627;28;20450;-81
2021/03/06 11:30:37;;;;;;;5.93;5.53;;;10.50;99.90;;;;;;5035444;28;20427;-81
2021/03/06 11:33:05;;;;;;;9.80;5.20;;;10.70;99.90;;;;;;5053468;28;20489;-82
2021/03/06 11:35:31;;;;;;;5.50;5.00;;;10.80;99.90;;;;;;5035589;28;20929;-82
2021/03/06 11:37:58;;;;;;;7.60;5.87;;;10.60;99.90;;;;;;5035517;28;20415;-80
2021/03/06 11:40:29;;;;;;;5.07;4.73;;;11.10;99.90;;;;;;5034414;28;20422;-82
2021/03/06 11:42:55;;;;;;;5.53;5.13;;;11.00;99.90;;;;;;5035017;28;20437;-82
2021/03/06 11:45:22;;;;;;;5.70;5.13;;;11.00;99.90;;;;;;5053265;28;20595;-82
2021/03/06 11:47:49;;;;;;;9.70;8.90;;;11.10;99.90;;;;;;5053207;28;20399;-81
2021/03/06 11:50:18;;;;;;;5.50;5.10;;;11.10;99.90;;;;;;5052941;28;20423;-79
2021/03/06 11:52:44;;;;;;;7.00;5.50;;;10.70;99.90;;;;;;5035182;28;20419;-81
2021/03/06 11:55:12;;;;;;;7.23;5.47;;;10.20;99.90;;;;;;5035733;28;20941;-81
2021/03/06 11:57:38;;;;;;;5.57;5.07;;;10.30;99.90;;;;;;5035953;28;20418;-82
2021/03/06 12:00:10;;;;;;;9.83;6.00;;;9.90;99.90;;;;;;5035250;28;20988;-81
2021/03/06 12:02:36;;;;;;;4.70;4.40;;;9.50;99.90;;;;;;5034842;28;20430;-81
2021/03/06 12:05:03;;;;;;;4.80;4.50;;;9.10;99.90;;;;;;5035579;28;21016;-82
2021/03/06 12:07:29;;;;;;;4.33;4.00;;;8.30;99.90;;;;;;5036855;28;20984;-81
2021/03/06 12:09:54;;;;;;;5.00;4.60;;;8.00;99.90;;;;;;5052813;28;20478;-81
2021/03/06 12:12:20;;;;;;;6.07;4.53;;;8.00;99.90;;;;;;5036858;28;20168;-80
2021/03/06 12:14:45;;;;;;;5.03;4.47;;;8.00;99.90;;;;;;5034682;28;20176;-81
2021/03/06 12:17:11;;;;;;;6.30;4.20;;;7.40;99.90;;;;;;5034555;28;20168;-81
2021/03/06 12:19:37;;;;;;;5.20;4.67;;;7.40;99.90;;;;;;5034686;28;20210;-81
2021/03/06 12:22:03;;;;;;;15.13;4.93;;;7.40;99.90;;;;;;5051953;28;20172;-81
2021/03/06 12:24:28;;;;;;;4.43;4.13;;;7.30;99.90;;;;;;5051593;28;20418;-81
2021/03/06 12:26:54;;;;;;;3.90;3.60;;;7.60;99.90;;;;;;5052174;28;20183;-81
2021/03/06 12:29:20;;;;;;;4.33;3.80;;;7.60;99.90;;;;;;5033779;28;20204;-81
2021/03/06 12:31:46;;;;;;;3.83;3.53;;;7.70;99.90;;;;;;5034728;28;20243;-83
2021/03/06 12:34:12;;;;;;;5.23;4.30;;;7.70;99.90;;;;;;5051965;28;20526;-81
2021/03/06 12:36:37;;;;;;;5.63;4.50;;;7.70;99.90;;;;;;5034252;28;20267;-80
2021/03/06 12:39:07;;;;;;;4.23;3.90;;;7.90;99.90;;;;;;5052119;28;20464;-80
2021/03/06 12:41:34;;;;;;;4.30;3.90;;;8.20;99.90;;;;;;5050981;28;20417;-82
2021/03/06 12:43:59;;;;;;;4.53;4.13;;;8.10;99.90;;;;;;5051799;28;20426;-82
2021/03/06 12:46:25;;;;;;;3.70;3.50;;;7.80;99.90;;;;;;5051427;28;20497;-81
2021/03/06 12:48:51;;;;;;;4.27;2.80;;;7.70;99.90;;;;;;5050784;28;20211;-81
2021/03/06 12:51:18;;;;;;;5.47;3.80;;;7.60;99.90;;;;;;5033727;28;20168;-81
2021/03/06 12:53:44;;;;;;;5.47;4.93;;;7.50;99.90;;;;;;5034088;28;20426;-82
2021/03/06 12:56:09;;;;;;;6.00;4.40;;;7.60;99.90;;;;;;5034348;28;20426;-81
2021/03/06 12:58:35;;;;;;;3.90;3.70;;;7.80;99.90;;;;;;5052247;28;20242;-80
2021/03/06 13:01:00;;;;;;;4.53;4.13;;;7.70;99.90;;;;;;5051262;28;20531;-81
2021/03/06 13:03:26;;;;;;;4.60;4.30;;;7.60;99.90;;;;;;5051916;28;20180;-80
2021/03/06 13:05:52;;;;;;;4.27;3.83;;;7.70;99.90;;;;;;5051712;28;20172;-80
2021/03/06 13:08:17;;;;;;;4.50;4.20;;;7.80;99.90;;;;;;5051642;28;20877;-81